createdAt,value
2022-11-06T00:00:36.290Z,0
2022-11-06T00:01:42.643Z,0
2022-11-06T00:02:49.096Z,0
2022-11-06T00:03:55.411Z,0
2022-11-06T00:05:01.773Z,0
2022-11-06T00:06:08.238Z,0
2022-11-06T00:07:14.614Z,0
2022-11-06T00:08:20.968Z,0
2022-11-06T00:09:27.298Z,0
2022-11-06T00:10:33.698Z,0
2022-11-06T00:11:40.062Z,0
2022-11-06T00:12:46.445Z,0
2022-11-06T00:13:53.019Z,0
2022-11-06T00:14:59.432Z,0
2022-11-06T00:16:05.982Z,0
2022-11-06T00:17:12.480Z,0
2022-11-06T00:18:18.973Z,0
2022-11-06T00:19:25.463Z,0
2022-11-06T00:20:31.943Z,0
2022-11-06T00:21:38.435Z,0
2022-11-06T00:22:44.937Z,0
2022-11-06T00:23:51.436Z,0
2022-11-06T00:24:57.928Z,0
2022-11-06T00:26:04.470Z,0
2022-11-06T00:27:10.956Z,0
2022-11-06T00:29:46.525Z,0
2022-11-06T00:30:52.158Z,0
2022-11-06T00:31:58.504Z,0
2022-11-06T00:33:04.732Z,0
2022-11-06T00:34:11.082Z,0
2022-11-06T00:35:17.322Z,0
2022-11-06T00:36:23.607Z,0
2022-11-06T00:37:29.936Z,0
2022-11-06T00:38:36.285Z,0
2022-11-06T00:39:42.530Z,0
2022-11-06T00:40:48.826Z,0
2022-11-06T00:41:55.149Z,0
2022-11-06T00:43:01.452Z,0
2022-11-06T00:44:07.807Z,0
2022-11-06T00:45:14.063Z,0
2022-11-06T00:46:20.355Z,0
2022-11-06T00:47:26.644Z,0
2022-11-06T00:48:32.945Z,0
2022-11-06T00:49:39.304Z,0
2022-11-06T00:50:45.624Z,0
2022-11-06T00:51:51.940Z,0
2022-11-06T00:52:58.169Z,0
2022-11-06T00:54:04.508Z,0
2022-11-06T00:55:10.785Z,0
2022-11-06T00:56:17.084Z,0
2022-11-06T00:57:23.396Z,0
2022-11-06T00:58:29.755Z,0
2022-11-06T00:59:36.091Z,0
2022-11-06T01:00:42.462Z,0
2022-11-06T01:01:48.822Z,0
2022-11-06T01:02:55.251Z,0
2022-11-06T01:04:01.581Z,0
2022-11-06T01:05:07.963Z,0
2022-11-06T01:06:14.360Z,0
2022-11-06T01:07:20.713Z,0
2022-11-06T01:08:27.113Z,0
2022-11-06T01:09:33.461Z,0
2022-11-06T01:10:39.820Z,0
2022-11-06T01:11:46.186Z,0
2022-11-06T01:12:52.710Z,0
2022-11-06T01:13:59.189Z,0
2022-11-06T01:15:05.740Z,0
2022-11-06T01:16:12.187Z,0
2022-11-06T01:17:18.722Z,0
2022-11-06T01:18:25.171Z,0
2022-11-06T01:19:31.756Z,0
2022-11-06T01:20:38.160Z,0
2022-11-06T01:21:44.683Z,0
2022-11-06T01:22:51.179Z,0
2022-11-06T01:23:57.720Z,0
2022-11-06T01:25:04.268Z,0
2022-11-06T01:26:10.673Z,0
2022-11-06T01:29:08.378Z,0
2022-11-06T01:30:13.980Z,0
2022-11-06T01:31:20.198Z,0
2022-11-06T01:32:26.531Z,0
2022-11-06T01:33:32.813Z,0
2022-11-06T01:34:39.075Z,0
2022-11-06T01:35:45.363Z,0
2022-11-06T01:36:51.690Z,0
2022-11-06T01:37:57.985Z,0
2022-11-06T01:39:04.240Z,0
2022-11-06T01:40:10.594Z,0
2022-11-06T01:41:16.883Z,0
2022-11-06T01:42:23.167Z,0
2022-11-06T01:43:29.443Z,0
2022-11-06T01:44:35.737Z,0
2022-11-06T01:45:42.033Z,0
2022-11-06T01:46:48.291Z,0
2022-11-06T01:47:54.600Z,0
2022-11-06T01:49:00.900Z,0
2022-11-06T01:50:07.159Z,0
2022-11-06T01:51:13.462Z,0
2022-11-06T01:52:19.774Z,0
2022-11-06T01:53:26.042Z,0
2022-11-06T01:54:32.365Z,0
2022-11-06T01:55:38.641Z,0
2022-11-06T01:56:44.985Z,0
2022-11-06T01:57:51.365Z,0
2022-11-06T01:58:57.713Z,0
2022-11-06T02:00:04.054Z,0
2022-11-06T02:01:10.406Z,0
2022-11-06T02:02:16.776Z,0
2022-11-06T02:03:23.204Z,0
2022-11-06T02:04:29.508Z,0
2022-11-06T02:05:35.928Z,0
2022-11-06T02:06:42.287Z,0
2022-11-06T02:07:48.636Z,0
2022-11-06T02:08:55.018Z,0
2022-11-06T02:10:01.395Z,0
2022-11-06T02:11:07.759Z,0
2022-11-06T02:12:14.255Z,0
2022-11-06T02:13:19.755Z,0
2022-11-06T02:14:26.100Z,0
2022-11-06T02:15:32.476Z,0
2022-11-06T02:16:38.845Z,0
2022-11-06T02:17:45.201Z,0
2022-11-06T02:18:51.574Z,0
2022-11-06T02:19:57.955Z,0
2022-11-06T02:21:04.307Z,0
2022-11-06T02:22:10.678Z,0
2022-11-06T02:23:17.047Z,0
2022-11-06T02:24:23.480Z,0
2022-11-06T02:25:29.783Z,0
2022-11-06T02:26:36.172Z,0
2022-11-06T02:27:42.526Z,0
2022-11-06T02:28:48.902Z,0
2022-11-06T02:29:55.280Z,0
2022-11-06T02:31:01.658Z,0
2022-11-06T02:32:08.116Z,0
2022-11-06T02:33:14.394Z,0
2022-11-06T02:34:20.794Z,0
2022-11-06T02:35:27.142Z,0
2022-11-06T02:36:33.513Z,0
2022-11-06T02:37:39.882Z,0
2022-11-06T02:38:46.326Z,0
2022-11-06T02:39:52.681Z,0
2022-11-06T02:40:59.178Z,0
2022-11-06T02:42:05.680Z,0
2022-11-06T02:43:12.153Z,0
2022-11-06T02:44:17.584Z,0
2022-11-06T02:45:23.853Z,0
2022-11-06T02:46:30.171Z,0
2022-11-06T02:47:36.440Z,0
2022-11-06T02:48:42.742Z,0
2022-11-06T02:49:49.065Z,0
2022-11-06T02:50:55.374Z,0
2022-11-06T02:52:01.621Z,0
2022-11-06T02:53:07.907Z,0
2022-11-06T02:54:14.195Z,0
2022-11-06T02:55:20.479Z,0
2022-11-06T02:56:26.808Z,0
2022-11-06T02:57:33.093Z,0
2022-11-06T02:58:39.355Z,0
2022-11-06T02:59:45.661Z,0
2022-11-06T03:00:52.017Z,0
2022-11-06T03:01:58.245Z,0
2022-11-06T03:03:04.574Z,0
2022-11-06T03:04:10.859Z,0
2022-11-06T03:05:17.181Z,0
2022-11-06T03:06:23.429Z,0
2022-11-06T03:07:29.723Z,0
2022-11-06T03:08:36.011Z,0
2022-11-06T03:09:42.313Z,0
2022-11-06T03:10:48.640Z,0
2022-11-06T03:11:55.031Z,0
2022-11-06T03:13:01.356Z,0
2022-11-06T03:14:07.834Z,0
2022-11-06T03:15:14.311Z,0
2022-11-06T03:16:20.503Z,0
2022-11-06T03:17:26.939Z,0
2022-11-06T03:18:33.247Z,0
2022-11-06T03:19:39.667Z,0
2022-11-06T03:20:46.011Z,0
2022-11-06T03:21:52.374Z,0
2022-11-06T03:22:58.753Z,0
2022-11-06T03:24:05.157Z,0
2022-11-06T03:25:11.502Z,0
2022-11-06T03:26:18.029Z,0
2022-11-06T03:27:24.510Z,0
2022-11-06T03:28:31.009Z,0
2022-11-06T03:29:37.542Z,0
2022-11-06T03:30:44.007Z,0
2022-11-06T03:31:50.510Z,0
2022-11-06T03:32:57.001Z,0
2022-11-06T03:34:03.573Z,0
2022-11-06T03:35:10.050Z,0
2022-11-06T03:36:16.510Z,0
2022-11-06T03:37:23.003Z,0
2022-11-06T03:38:29.825Z,0
2022-11-06T03:39:36.068Z,0
2022-11-06T03:42:11.576Z,0
2022-11-06T03:43:17.165Z,0
2022-11-06T03:44:23.468Z,0
2022-11-06T03:45:29.770Z,0
2022-11-06T03:46:36.144Z,0
2022-11-06T03:47:42.361Z,0
2022-11-06T03:48:48.704Z,0
2022-11-06T03:49:54.995Z,0
2022-11-06T03:51:01.257Z,0
2022-11-06T03:52:07.555Z,0
2022-11-06T03:53:13.867Z,0
2022-11-06T03:54:20.178Z,0
2022-11-06T03:55:26.454Z,0
2022-11-06T03:56:32.768Z,0
2022-11-06T03:57:39.052Z,0
2022-11-06T03:58:45.380Z,0
2022-11-06T03:59:51.642Z,0
2022-11-06T04:00:57.958Z,0
2022-11-06T04:02:04.242Z,0
2022-11-06T04:03:10.608Z,0
2022-11-06T04:04:16.843Z,0
2022-11-06T04:05:23.151Z,0
2022-11-06T04:06:29.509Z,0
2022-11-06T04:07:35.809Z,0
2022-11-06T04:08:42.060Z,0
2022-11-06T04:09:48.354Z,0
2022-11-06T04:10:54.731Z,0
2022-11-06T04:12:01.187Z,0
2022-11-06T04:13:07.533Z,0
2022-11-06T04:14:13.891Z,0
2022-11-06T04:15:20.206Z,0
2022-11-06T04:16:26.602Z,0
2022-11-06T04:17:32.982Z,0
2022-11-06T04:18:39.364Z,0
2022-11-06T04:19:45.716Z,0
2022-11-06T04:20:52.108Z,0
2022-11-06T04:21:58.450Z,0
2022-11-06T04:23:05.118Z,0
2022-11-06T04:24:11.185Z,0
2022-11-06T04:25:17.695Z,0
2022-11-06T04:26:24.261Z,0
2022-11-06T04:27:30.709Z,0
2022-11-06T04:28:37.264Z,0
2022-11-06T04:29:43.673Z,0
2022-11-06T04:30:49.122Z,0
2022-11-06T04:31:55.415Z,0
2022-11-06T04:33:01.709Z,0
2022-11-06T04:34:07.981Z,0
2022-11-06T04:35:14.290Z,0
2022-11-06T04:36:20.613Z,0
2022-11-06T04:37:26.922Z,0
2022-11-06T04:38:33.175Z,0
2022-11-06T04:39:39.461Z,0
2022-11-06T04:40:45.751Z,0
2022-11-06T04:41:52.048Z,0
2022-11-06T04:42:58.402Z,0
2022-11-06T04:44:04.666Z,0
2022-11-06T04:45:10.926Z,0
2022-11-06T04:46:17.224Z,0
2022-11-06T04:47:23.507Z,0
2022-11-06T04:48:29.797Z,0
2022-11-06T04:49:36.080Z,0
2022-11-06T04:50:42.372Z,0
2022-11-06T04:51:48.679Z,0
2022-11-06T04:52:54.955Z,0
2022-11-06T04:54:01.319Z,0
2022-11-06T04:55:07.547Z,0
2022-11-06T04:56:13.844Z,0
2022-11-06T04:57:20.119Z,0
2022-11-06T04:58:26.539Z,0
2022-11-06T04:59:32.871Z,0
2022-11-06T05:00:39.234Z,0
2022-11-06T05:01:45.663Z,0
2022-11-06T05:02:51.998Z,0
2022-11-06T05:03:58.337Z,0
2022-11-06T05:05:04.716Z,0
2022-11-06T05:06:11.069Z,0
2022-11-06T05:07:17.456Z,0
2022-11-06T05:08:23.811Z,0
2022-11-06T05:09:30.167Z,0
2022-11-06T05:10:36.576Z,0
2022-11-06T05:11:42.892Z,0
2022-11-06T05:12:49.413Z,0
2022-11-06T05:13:54.885Z,0
2022-11-06T05:15:01.268Z,0
2022-11-06T05:16:07.613Z,0
2022-11-06T05:17:14.004Z,0
2022-11-06T05:18:20.347Z,0
2022-11-06T05:19:26.737Z,0
2022-11-06T05:20:33.111Z,0
2022-11-06T05:21:39.439Z,0
2022-11-06T05:22:45.802Z,0
2022-11-06T05:23:52.169Z,0
2022-11-06T05:24:58.532Z,0
2022-11-06T05:26:04.891Z,0
2022-11-06T05:27:11.273Z,0
2022-11-06T05:28:17.613Z,0
2022-11-06T05:29:23.974Z,0
2022-11-06T05:30:30.360Z,0
2022-11-06T05:31:36.701Z,0
2022-11-06T05:32:43.089Z,3
2022-11-06T05:33:49.428Z,3
2022-11-06T05:34:55.798Z,4
2022-11-06T05:36:02.180Z,0
2022-11-06T05:37:08.509Z,0
2022-11-06T05:38:14.886Z,4
2022-11-06T05:39:21.338Z,1
2022-11-06T05:40:27.681Z,1
2022-11-06T05:41:34.142Z,1
2022-11-06T05:42:39.534Z,5
2022-11-06T05:43:45.794Z,3
2022-11-06T05:44:52.105Z,3
2022-11-06T05:45:58.370Z,4
2022-11-06T05:47:04.646Z,6
2022-11-06T05:48:10.933Z,12
2022-11-06T05:49:17.213Z,11
2022-11-06T05:50:23.524Z,14
2022-11-06T05:51:29.793Z,17
2022-11-06T05:52:36.100Z,21
2022-11-06T05:53:42.393Z,25
2022-11-06T05:54:48.672Z,34
2022-11-06T05:55:54.940Z,34
2022-11-06T05:57:01.241Z,54
2022-11-06T05:58:07.500Z,77
2022-11-06T05:59:13.793Z,100
2022-11-06T06:00:20.107Z,111
2022-11-06T06:01:26.358Z,130
2022-11-06T06:02:32.649Z,150
2022-11-06T06:03:38.934Z,168
2022-11-06T06:04:45.230Z,217
2022-11-06T06:05:51.497Z,248
2022-11-06T06:06:57.784Z,285
2022-11-06T06:08:04.092Z,326
2022-11-06T06:09:10.374Z,375
2022-11-06T06:10:16.746Z,420
2022-11-06T06:11:23.103Z,466
2022-11-06T06:12:29.468Z,500
2022-11-06T06:13:35.828Z,558
2022-11-06T06:14:42.240Z,622
2022-11-06T06:15:48.552Z,661
2022-11-06T06:16:54.931Z,724
2022-11-06T06:18:01.298Z,806
2022-11-06T06:19:07.675Z,850
2022-11-06T06:20:14.011Z,898
2022-11-06T06:21:20.363Z,960
2022-11-06T06:22:26.799Z,935
2022-11-06T06:23:33.102Z,904
2022-11-06T06:24:39.597Z,971
2022-11-06T06:25:44.994Z,1130
2022-11-06T06:26:51.312Z,1232
2022-11-06T06:27:57.593Z,1241
2022-11-06T06:29:03.882Z,805
2022-11-06T06:30:10.251Z,1776
2022-11-06T06:31:16.443Z,2947
2022-11-06T06:32:22.727Z,3589
2022-11-06T06:33:29.025Z,3923
2022-11-06T06:34:35.365Z,3969
2022-11-06T06:35:41.588Z,3430
2022-11-06T06:36:47.881Z,4248
2022-11-06T06:37:54.188Z,4674
2022-11-06T06:39:00.409Z,4661
2022-11-06T06:40:06.746Z,4805
2022-11-06T06:41:12.991Z,5682
2022-11-06T06:42:19.292Z,7183
2022-11-06T06:43:25.475Z,6226
2022-11-06T06:44:31.770Z,5833
2022-11-06T06:45:38.029Z,6642
2022-11-06T06:46:44.355Z,7046
2022-11-06T06:47:50.589Z,10546
2022-11-06T06:48:56.826Z,16392
2022-11-06T06:50:03.057Z,14477
2022-11-06T06:51:09.351Z,4241
2022-11-06T06:52:15.573Z,8150
2022-11-06T06:53:21.920Z,9273
2022-11-06T06:54:28.246Z,9617
2022-11-06T06:55:34.555Z,11297
2022-11-06T06:56:40.902Z,16714
2022-11-06T06:57:47.246Z,12526
2022-11-06T06:58:53.524Z,16040
2022-11-06T06:59:59.805Z,18979
2022-11-06T07:01:06.132Z,17419
2022-11-06T07:02:11.410Z,12978
2022-11-06T07:03:17.634Z,13026
2022-11-06T07:04:23.883Z,15083
2022-11-06T07:05:30.113Z,43733
2022-11-06T07:06:36.361Z,16572
2022-11-06T07:07:42.531Z,9719
2022-11-06T07:08:48.801Z,13825
2022-11-06T07:09:55.022Z,12925
2022-11-06T07:11:01.133Z,13239
2022-11-06T07:12:07.404Z,31108
2022-11-06T07:13:12.572Z,43379
2022-11-06T07:14:17.759Z,56543
2022-11-06T07:15:22.975Z,46460
2022-11-06T07:16:28.182Z,25581
2022-11-06T07:17:33.375Z,20765
2022-11-06T07:18:38.578Z,30789
2022-11-06T07:19:43.825Z,28113
2022-11-06T07:20:48.980Z,40135
2022-11-06T07:21:55.170Z,41862
2022-11-06T07:23:01.351Z,27452
2022-11-06T07:24:07.527Z,42200
2022-11-06T07:25:13.750Z,37592
2022-11-06T07:26:19.858Z,15073
2022-11-06T07:27:25.987Z,15310
2022-11-06T07:28:32.172Z,15890
2022-11-06T07:29:38.302Z,27787
2022-11-06T07:30:44.455Z,30322
2022-11-06T07:31:50.590Z,28486
2022-11-06T07:32:56.855Z,27928
2022-11-06T07:34:02.891Z,25199
2022-11-06T07:35:08.045Z,25022
2022-11-06T07:36:14.195Z,4502
2022-11-06T07:37:20.398Z,38797
2022-11-06T07:38:26.455Z,13139
2022-11-06T07:39:32.662Z,9257
2022-11-06T07:40:38.774Z,9336
2022-11-06T07:41:44.911Z,9054
2022-11-06T07:42:51.089Z,8460
2022-11-06T07:43:57.250Z,8574
2022-11-06T07:45:03.470Z,8497
2022-11-06T07:46:09.613Z,8356
2022-11-06T07:47:15.811Z,8396
2022-11-06T07:48:22.030Z,8678
2022-11-06T07:49:27.181Z,8905
2022-11-06T07:50:33.387Z,8182
2022-11-06T07:51:39.571Z,9055
2022-11-06T07:52:45.784Z,9360
2022-11-06T07:53:52.003Z,8892
2022-11-06T07:54:58.200Z,8740
2022-11-06T07:56:04.440Z,8730
2022-11-06T07:57:10.669Z,8774
2022-11-06T07:58:16.839Z,8753
2022-11-06T07:59:23.164Z,8729
2022-11-06T08:00:29.303Z,8716
2022-11-06T08:01:35.610Z,8639
2022-11-06T08:02:41.743Z,7770
2022-11-06T08:03:48.069Z,7918
2022-11-06T08:04:54.334Z,9694
2022-11-06T08:06:00.513Z,9222
2022-11-06T08:07:06.639Z,8898
2022-11-06T08:08:12.888Z,9100
2022-11-06T08:09:19.119Z,10313
2022-11-06T08:10:25.322Z,9047
2022-11-06T08:11:31.554Z,8917
2022-11-06T08:12:37.790Z,8698
2022-11-06T08:13:44.004Z,8778
2022-11-06T08:14:50.265Z,9114
2022-11-06T08:15:56.487Z,8775
2022-11-06T08:17:02.681Z,8155
2022-11-06T08:18:08.923Z,8404
2022-11-06T08:19:15.136Z,8675
2022-11-06T08:20:21.404Z,8034
2022-11-06T08:21:27.605Z,7939
2022-11-06T08:22:33.821Z,8736
2022-11-06T08:23:40.051Z,12577
2022-11-06T08:24:46.277Z,9914
2022-11-06T08:25:52.515Z,8831
2022-11-06T08:26:58.801Z,9079
2022-11-06T08:28:04.962Z,8552
2022-11-06T08:29:11.220Z,9507
2022-11-06T08:30:17.551Z,10383
2022-11-06T08:31:22.927Z,9041
2022-11-06T08:32:28.278Z,9073
2022-11-06T08:33:34.539Z,8481
2022-11-06T08:34:39.776Z,9251
2022-11-06T08:35:46.014Z,9595
2022-11-06T08:36:52.227Z,9306
2022-11-06T08:37:58.470Z,8958
2022-11-06T08:39:04.715Z,9457
2022-11-06T08:40:10.935Z,9021
2022-11-06T08:41:17.177Z,9208
2022-11-06T08:42:23.363Z,9240
2022-11-06T08:43:29.582Z,9193
2022-11-06T08:44:35.867Z,9595
2022-11-06T08:45:42.039Z,9851
2022-11-06T08:46:48.276Z,9048
2022-11-06T08:47:54.547Z,9044
2022-11-06T08:49:00.750Z,8624
2022-11-06T08:50:07.041Z,8969
2022-11-06T08:51:13.266Z,8888
2022-11-06T08:52:19.528Z,8122
2022-11-06T08:53:25.705Z,4782
2022-11-06T08:54:31.836Z,13994
2022-11-06T08:55:38.072Z,27845
2022-11-06T08:56:44.235Z,32054
2022-11-06T08:57:50.439Z,3237
2022-11-06T08:58:56.675Z,25455
2022-11-06T09:00:02.863Z,13064
2022-11-06T09:01:08.043Z,11972
2022-11-06T09:02:13.305Z,11495
2022-11-06T09:03:19.476Z,11282
2022-11-06T09:04:25.627Z,11190
2022-11-06T09:05:31.940Z,10852
2022-11-06T09:06:38.088Z,10725
2022-11-06T09:07:44.161Z,10763
2022-11-06T09:08:50.350Z,10381
2022-11-06T09:09:56.534Z,10448
2022-11-06T09:11:02.710Z,10376
2022-11-06T09:12:08.898Z,10159
2022-11-06T09:13:15.016Z,10023
2022-11-06T09:14:21.243Z,10048
2022-11-06T09:15:27.389Z,9953
2022-11-06T09:16:32.630Z,9930
2022-11-06T09:17:38.706Z,9853
2022-11-06T09:18:44.892Z,9782
2022-11-06T09:19:51.050Z,9738
2022-11-06T09:20:57.320Z,9635
2022-11-06T09:22:03.392Z,9543
2022-11-06T09:23:09.616Z,9451
2022-11-06T09:24:15.729Z,9470
2022-11-06T09:25:22.007Z,9344
2022-11-06T09:26:28.142Z,9250
2022-11-06T09:27:34.296Z,9226
2022-11-06T09:28:40.411Z,9086
2022-11-06T09:29:46.576Z,9027
2022-11-06T09:30:51.777Z,8972
2022-11-06T09:31:58.018Z,8807
2022-11-06T09:33:04.104Z,8927
2022-11-06T09:34:10.355Z,8853
2022-11-06T09:35:16.458Z,8692
2022-11-06T09:36:22.632Z,8773
2022-11-06T09:37:28.830Z,8654
2022-11-06T09:38:35.007Z,8628
2022-11-06T09:39:41.351Z,8491
2022-11-06T09:40:47.378Z,8455
2022-11-06T09:41:53.545Z,8436
2022-11-06T09:42:59.737Z,8343
2022-11-06T09:44:05.954Z,8431
2022-11-06T09:45:11.236Z,8336
2022-11-06T09:46:17.327Z,8351
2022-11-06T09:47:23.518Z,8316
2022-11-06T09:48:29.692Z,8255
2022-11-06T09:49:35.830Z,8261
2022-11-06T09:50:42.016Z,8267
2022-11-06T09:51:48.238Z,8226
2022-11-06T09:52:54.476Z,8213
2022-11-06T09:54:00.637Z,8230
2022-11-06T09:55:06.817Z,8156
2022-11-06T09:56:12.976Z,8168
2022-11-06T09:57:19.153Z,8172
2022-11-06T09:58:25.405Z,7980
2022-11-06T09:59:30.538Z,8273
2022-11-06T10:00:36.838Z,7963
2022-11-06T10:01:42.914Z,8252
2022-11-06T10:02:49.156Z,8092
2022-11-06T10:03:55.291Z,8061
2022-11-06T10:05:01.478Z,8460
2022-11-06T10:06:07.717Z,7769
2022-11-06T10:07:12.876Z,8044
2022-11-06T10:08:19.074Z,8199
2022-11-06T10:09:25.326Z,8047
2022-11-06T10:10:31.502Z,8017
2022-11-06T10:11:37.660Z,8124
2022-11-06T10:12:43.832Z,8027
2022-11-06T10:13:50.040Z,7886
2022-11-06T10:14:56.198Z,7997
2022-11-06T10:16:02.475Z,8186
2022-11-06T10:17:08.627Z,7659
2022-11-06T10:18:14.767Z,7732
2022-11-06T10:19:20.979Z,8611
2022-11-06T10:20:27.168Z,7988
2022-11-06T10:21:32.392Z,7918
2022-11-06T10:22:38.561Z,7696
2022-11-06T10:23:44.789Z,7840
2022-11-06T10:24:50.904Z,8280
2022-11-06T10:25:57.144Z,7912
2022-11-06T10:27:03.284Z,7889
2022-11-06T10:28:09.493Z,7692
2022-11-06T10:29:15.655Z,7742
2022-11-06T10:30:21.800Z,7806
2022-11-06T10:31:27.981Z,7598
2022-11-06T10:32:34.168Z,7662
2022-11-06T10:33:40.356Z,7794
2022-11-06T10:34:46.544Z,7771
2022-11-06T10:35:51.717Z,7636
2022-11-06T10:36:57.916Z,7571
2022-11-06T10:38:04.093Z,7679
2022-11-06T10:39:10.261Z,7401
2022-11-06T10:40:16.522Z,7988
2022-11-06T10:41:22.615Z,7827
2022-11-06T10:42:28.767Z,7424
2022-11-06T10:43:34.950Z,7688
2022-11-06T10:44:41.181Z,7804
2022-11-06T10:45:47.357Z,7594
2022-11-06T10:46:53.495Z,7407
2022-11-06T10:47:59.700Z,7425
2022-11-06T10:49:05.851Z,7550
2022-11-06T10:50:11.014Z,7453
2022-11-06T10:51:17.182Z,7447
2022-11-06T10:52:23.367Z,7502
2022-11-06T10:53:29.542Z,7350
2022-11-06T10:54:35.705Z,7345
2022-11-06T10:55:41.876Z,7376
2022-11-06T10:56:48.094Z,7309
2022-11-06T10:57:54.220Z,7306
2022-11-06T10:59:00.433Z,7316
2022-11-06T11:00:06.532Z,7335
2022-11-06T11:01:12.721Z,7255
2022-11-06T11:02:18.956Z,7212
2022-11-06T11:03:25.054Z,7257
2022-11-06T11:04:30.216Z,7210
2022-11-06T11:05:36.475Z,7300
2022-11-06T11:06:42.661Z,7235
2022-11-06T11:07:48.752Z,7114
2022-11-06T11:08:54.913Z,7223
2022-11-06T11:10:01.031Z,7171
2022-11-06T11:11:07.192Z,7174
2022-11-06T11:12:13.364Z,7197
2022-11-06T11:13:19.530Z,7109
2022-11-06T11:14:25.725Z,7155
2022-11-06T11:15:31.866Z,6946
2022-11-06T11:16:38.057Z,6951
2022-11-06T11:17:44.271Z,7392
2022-11-06T11:18:49.430Z,7046
2022-11-06T11:19:55.551Z,7038
2022-11-06T11:21:01.704Z,6989
2022-11-06T11:22:07.893Z,7035
2022-11-06T11:23:14.027Z,6965
2022-11-06T11:24:20.189Z,7014
2022-11-06T11:25:26.393Z,6951
2022-11-06T11:26:32.514Z,6933
2022-11-06T11:27:38.669Z,6967
2022-11-06T11:28:44.862Z,6951
2022-11-06T11:29:51.080Z,6980
2022-11-06T11:30:57.226Z,6989
2022-11-06T11:32:03.360Z,6904
2022-11-06T11:33:08.539Z,6877
2022-11-06T11:34:14.684Z,6918
2022-11-06T11:35:20.892Z,6904
2022-11-06T11:36:27.031Z,6836
2022-11-06T11:37:33.173Z,6926
2022-11-06T11:38:39.365Z,6925
2022-11-06T11:39:45.508Z,6918
2022-11-06T11:40:51.685Z,6937
2022-11-06T11:41:57.841Z,6876
2022-11-06T11:43:03.959Z,6917
2022-11-06T11:44:10.138Z,6974
2022-11-06T11:45:16.327Z,6964
2022-11-06T11:46:22.444Z,6892
2022-11-06T11:47:27.634Z,6977
2022-11-06T11:48:33.773Z,6984
2022-11-06T11:49:39.938Z,6973
2022-11-06T11:50:46.098Z,6987
2022-11-06T11:51:52.299Z,6967
2022-11-06T11:52:58.443Z,6995
2022-11-06T11:54:04.565Z,6959
2022-11-06T11:55:10.727Z,7004
2022-11-06T11:56:16.897Z,6992
2022-11-06T11:57:23.053Z,7063
2022-11-06T11:58:29.244Z,6935
2022-11-06T11:59:35.366Z,6999
2022-11-06T12:00:41.652Z,7055
2022-11-06T12:01:46.779Z,9805
2022-11-06T12:02:52.870Z,3524
2022-11-06T12:03:59.039Z,7052
2022-11-06T12:05:05.244Z,7114
2022-11-06T12:06:11.345Z,7009
2022-11-06T12:07:17.498Z,7096
2022-11-06T12:08:23.645Z,7068
2022-11-06T12:09:29.801Z,7138
2022-11-06T12:10:35.952Z,7154
2022-11-06T12:11:42.099Z,7037
2022-11-06T12:12:48.261Z,7114
2022-11-06T12:13:54.442Z,7018
2022-11-06T12:15:00.566Z,6991
2022-11-06T12:16:05.765Z,6994
2022-11-06T12:17:11.911Z,6924
2022-11-06T12:18:18.040Z,6901
2022-11-06T12:19:24.181Z,6841
2022-11-06T12:20:30.346Z,6859
2022-11-06T12:21:36.531Z,6813
2022-11-06T12:22:42.653Z,6789
2022-11-06T12:23:48.783Z,6742
2022-11-06T12:24:54.928Z,6794
2022-11-06T12:26:01.079Z,6723
2022-11-06T12:27:07.238Z,6679
2022-11-06T12:28:13.391Z,6758
2022-11-06T12:29:19.527Z,6681
2022-11-06T12:30:24.690Z,6688
2022-11-06T12:31:30.829Z,6558
2022-11-06T12:32:37.023Z,6625
2022-11-06T12:33:43.136Z,6623
2022-11-06T12:34:49.282Z,6601
2022-11-06T12:35:55.424Z,6575
2022-11-06T12:37:01.565Z,6512
2022-11-06T12:38:07.730Z,6537
2022-11-06T12:39:13.859Z,6507
2022-11-06T12:40:20.003Z,6469
2022-11-06T12:41:26.167Z,6454
2022-11-06T12:42:32.328Z,6451
2022-11-06T12:43:38.466Z,6440
2022-11-06T12:44:43.608Z,6422
2022-11-06T12:45:49.754Z,6364
2022-11-06T12:46:55.903Z,6450
2022-11-06T12:48:02.074Z,6426
2022-11-06T12:49:08.198Z,6372
2022-11-06T12:50:14.350Z,6392
2022-11-06T12:51:20.579Z,6395
2022-11-06T12:52:26.641Z,6418
2022-11-06T12:53:32.797Z,6327
2022-11-06T12:54:38.951Z,6366
2022-11-06T12:55:45.089Z,6393
2022-11-06T12:56:51.240Z,6343
2022-11-06T12:57:57.424Z,6339
2022-11-06T12:59:02.545Z,6334
2022-11-06T13:00:08.701Z,6369
2022-11-06T13:01:14.848Z,6348
2022-11-06T13:02:21.001Z,6230
2022-11-06T13:03:27.179Z,6108
2022-11-06T13:04:33.311Z,6057
2022-11-06T13:05:39.450Z,6011
2022-11-06T13:06:45.600Z,6003
2022-11-06T13:07:51.767Z,5943
2022-11-06T13:08:57.934Z,5944
2022-11-06T13:10:04.070Z,5905
2022-11-06T13:11:10.235Z,5905
2022-11-06T13:12:16.418Z,5882
2022-11-06T13:13:21.554Z,5866
2022-11-06T13:14:27.747Z,5812
2022-11-06T13:15:33.853Z,5852
2022-11-06T13:16:40.028Z,5805
2022-11-06T13:17:46.169Z,5849
2022-11-06T13:18:52.333Z,5799
2022-11-06T13:19:58.496Z,5772
2022-11-06T13:21:04.652Z,5777
2022-11-06T13:22:10.829Z,5716
2022-11-06T13:23:17.023Z,5721
2022-11-06T13:24:23.166Z,5655
2022-11-06T13:25:29.320Z,5620
2022-11-06T13:26:35.597Z,5563
2022-11-06T13:27:40.703Z,5553
2022-11-06T13:28:46.855Z,5496
2022-11-06T13:29:52.994Z,5465
2022-11-06T13:30:59.169Z,5439
2022-11-06T13:32:05.359Z,5408
2022-11-06T13:33:11.520Z,5399
2022-11-06T13:34:17.682Z,5364
2022-11-06T13:35:23.870Z,5338
2022-11-06T13:36:30.034Z,5292
2022-11-06T13:37:36.195Z,5292
2022-11-06T13:38:42.349Z,5244
2022-11-06T13:39:48.539Z,5232
2022-11-06T13:40:54.706Z,5211
2022-11-06T13:41:59.886Z,5161
2022-11-06T13:43:06.079Z,5152
2022-11-06T13:44:12.238Z,5119
2022-11-06T13:45:18.434Z,5094
2022-11-06T13:46:24.569Z,5064
2022-11-06T13:47:30.735Z,5026
2022-11-06T13:48:35.927Z,4981
2022-11-06T13:49:42.162Z,4965
2022-11-06T13:50:48.331Z,4944
2022-11-06T13:51:54.465Z,4904
2022-11-06T13:53:00.653Z,4861
2022-11-06T13:54:06.836Z,4818
2022-11-06T13:55:13.072Z,4796
2022-11-06T13:56:19.180Z,4751
2022-11-06T13:57:25.377Z,4707
2022-11-06T13:58:31.557Z,4697
2022-11-06T13:59:37.708Z,4631
2022-11-06T14:00:43.883Z,4574
2022-11-06T14:01:50.122Z,4491
2022-11-06T14:02:56.258Z,4437
2022-11-06T14:04:02.453Z,4381
2022-11-06T14:05:08.656Z,4328
2022-11-06T14:06:14.820Z,4280
2022-11-06T14:07:20.989Z,4229
2022-11-06T14:08:27.163Z,4192
2022-11-06T14:09:33.357Z,4164
2022-11-06T14:10:39.585Z,4132
2022-11-06T14:11:45.740Z,4094
2022-11-06T14:12:51.900Z,4056
2022-11-06T14:13:58.096Z,4026
2022-11-06T14:15:03.280Z,3996
2022-11-06T14:16:09.484Z,3965
2022-11-06T14:17:15.682Z,3939
2022-11-06T14:18:21.857Z,3908
2022-11-06T14:19:28.009Z,3864
2022-11-06T14:20:34.188Z,3812
2022-11-06T14:21:40.425Z,3788
2022-11-06T14:22:46.559Z,3745
2022-11-06T14:23:52.757Z,3711
2022-11-06T14:24:58.940Z,3667
2022-11-06T14:26:05.095Z,3624
2022-11-06T14:27:11.307Z,3586
2022-11-06T14:28:17.473Z,3546
2022-11-06T14:29:22.666Z,3501
2022-11-06T14:30:28.835Z,3447
2022-11-06T14:31:35.027Z,3406
2022-11-06T14:32:41.215Z,3367
2022-11-06T14:33:47.404Z,3313
2022-11-06T14:34:53.570Z,3257
2022-11-06T14:35:59.794Z,3168
2022-11-06T14:37:05.936Z,2979
2022-11-06T14:38:12.128Z,2890
2022-11-06T14:39:18.339Z,2932
2022-11-06T14:40:24.482Z,2965
2022-11-06T14:41:30.676Z,2979
2022-11-06T14:42:37.031Z,2947
2022-11-06T14:43:43.218Z,2904
2022-11-06T14:44:48.427Z,2827
2022-11-06T14:45:54.563Z,2777
2022-11-06T14:47:00.809Z,2653
2022-11-06T14:48:06.844Z,2421
2022-11-06T14:49:13.149Z,2206
2022-11-06T14:50:19.223Z,2098
2022-11-06T14:51:25.538Z,2015
2022-11-06T14:52:31.594Z,1961
2022-11-06T14:53:37.895Z,1901
2022-11-06T14:54:44.016Z,1867
2022-11-06T14:55:50.298Z,1877
2022-11-06T14:56:56.379Z,1957
2022-11-06T14:58:02.590Z,2020
2022-11-06T14:59:08.765Z,2029
2022-11-06T15:00:15.027Z,1980
2022-11-06T15:01:21.252Z,1851
2022-11-06T15:02:27.394Z,1718
2022-11-06T15:03:33.635Z,1626
2022-11-06T15:04:39.789Z,1565
2022-11-06T15:05:45.990Z,1471
2022-11-06T15:06:52.183Z,1411
2022-11-06T15:07:58.389Z,1377
2022-11-06T15:09:04.595Z,1356
2022-11-06T15:10:10.888Z,1329
2022-11-06T15:11:17.002Z,1280
2022-11-06T15:12:23.222Z,1214
2022-11-06T15:13:29.420Z,1148
2022-11-06T15:14:35.645Z,1090
2022-11-06T15:15:41.848Z,1047
2022-11-06T15:16:48.074Z,1004
2022-11-06T15:17:54.282Z,958
2022-11-06T15:19:00.460Z,901
2022-11-06T15:20:06.697Z,863